Time;durP1;ratioP1;P1;durP2;ratioP2;P2;SDS_P1;SDS_P2;PMS_P1;PMS_P2;Temp;Humidity;BMP_temperature;BMP_pressure;BME280_temperature;BME280_humidity;BME280_pressure;Samples;Min_cycle;Max_cycle;Signal;HPM_P1;HPM_P2
2022/01/15 00:00:54;;;;;;;22.50;5.30;;;4.60;99.90;;;;;;4951578;28;20034;-75
2022/01/15 00:03:20;;;;;;;31.33;5.30;;;4.60;99.90;;;;;;4957920;28;20027;-75
2022/01/15 00:05:46;;;;;;;22.23;5.18;;;4.60;99.90;;;;;;4932973;28;20024;-75
2022/01/15 00:08:11;;;;;;;28.35;5.40;;;4.70;99.90;;;;;;4951274;28;20051;-75
2022/01/15 00:10:38;;;;;;;19.38;4.57;;;4.60;99.90;;;;;;4952706;28;20055;-74
2022/01/15 00:13:07;;;;;;;26.92;5.30;;;4.60;99.90;;;;;;4952080;28;20045;-74
2022/01/15 00:15:40;;;;;;;30.60;4.70;;;4.60;99.90;;;;;;4953381;28;20031;-74
2022/01/15 00:18:12;;;;;;;22.00;4.60;;;4.60;99.90;;;;;;4952624;28;20105;-74
2022/01/15 00:20:38;;;;;;;28.73;5.68;;;4.60;99.90;;;;;;4953750;28;20035;-74
2022/01/15 00:23:04;;;;;;;22.48;4.13;;;4.60;99.90;;;;;;4954963;28;20023;-74
2022/01/15 00:25:31;;;;;;;28.10;4.72;;;4.60;99.90;;;;;;4950145;28;20508;-74
2022/01/15 00:27:59;;;;;;;26.65;5.40;;;4.60;99.90;;;;;;4955899;28;20039;-74
2022/01/15 00:30:26;;;;;;;24.27;4.32;;;4.60;99.90;;;;;;4954195;28;20508;-73
2022/01/15 00:32:52;;;;;;;24.55;5.38;;;4.70;99.90;;;;;;4954073;28;20035;-74
2022/01/15 00:35:19;;;;;;;20.30;4.32;;;4.60;99.90;;;;;;4952764;28;20494;-74
2022/01/15 00:37:46;;;;;;;31.40;5.57;;;4.60;99.90;;;;;;4952347;28;20086;-74
2022/01/15 00:40:15;;;;;;;28.63;4.82;;;4.70;99.90;;;;;;4958252;28;20188;-74
2022/01/15 00:42:41;;;;;;;25.00;5.20;;;4.70;99.90;;;;;;4951775;28;20063;-74
2022/01/15 00:45:12;;;;;;;31.60;5.35;;;4.70;99.90;;;;;;4952642;28;20027;-74
2022/01/15 00:47:39;;;;;;;25.23;4.97;;;4.70;99.90;;;;;;4953699;28;20034;-75
2022/01/15 00:50:06;;;;;;;30.45;4.60;;;4.70;99.90;;;;;;4952969;28;20976;-74
2022/01/15 00:52:32;;;;;;;18.30;3.85;;;4.80;99.90;;;;;;4950683;28;20034;-74
2022/01/15 00:54:58;;;;;;;21.60;4.60;;;4.80;99.90;;;;;;4958416;28;20042;-75
2022/01/15 00:57:24;;;;;;;22.90;5.13;;;4.80;99.90;;;;;;4950673;28;20031;-75
2022/01/15 00:59:50;;;;;;;22.35;4.70;;;4.80;99.90;;;;;;4948913;28;20397;-74
2022/01/15 01:02:16;;;;;;;23.17;5.05;;;4.80;99.90;;;;;;4934155;28;20050;-75
2022/01/15 01:04:42;;;;;;;25.00;5.03;;;4.80;99.90;;;;;;4952037;28;20536;-74
2022/01/15 01:07:09;;;;;;;20.98;5.00;;;4.80;99.90;;;;;;4949810;28;20080;-75
2022/01/15 01:12:25;;;;;;;19.65;3.92;;;4.80;99.90;;;;;;4958285;28;20060;-74
2022/01/15 01:20:30;;;;;;;24.83;4.90;;;4.80;99.90;;;;;;4955019;28;20034;-76
2022/01/15 01:22:57;;;;;;;21.02;4.45;;;4.80;99.90;;;;;;4957702;28;20023;-74
2022/01/15 01:25:29;;;;;;;22.50;4.22;;;4.80;99.90;;;;;;4981034;28;20019;-75
2022/01/15 01:28:03;;;;;;;17.55;3.38;;;4.90;99.90;;;;;;4959635;28;20031;-75
2022/01/15 01:30:35;;;;;;;19.35;4.13;;;4.90;99.90;;;;;;4955031;28;20094;-76
2022/01/15 01:33:26;;;;;;;23.00;4.18;;;4.90;99.90;;;;;;4953927;28;20126;-75
2022/01/15 01:35:50;;;;;;;20.58;5.15;;;4.90;99.90;;;;;;4957993;28;20039;-75
2022/01/15 01:38:26;;;;;;;30.15;4.50;;;4.90;99.90;;;;;;4948575;28;20023;-75
2022/01/15 01:40:52;;;;;;;26.00;5.10;;;4.90;99.90;;;;;;4958335;28;21028;-75
2022/01/15 01:46:11;;;;;;;20.27;3.97;;;4.90;99.90;;;;;;4953810;28;20095;-74
2022/01/15 01:48:37;;;;;;;20.10;3.72;;;5.00;99.90;;;;;;4955367;28;20027;-74
2022/01/15 01:51:06;;;;;;;26.05;4.57;;;4.90;99.90;;;;;;4955601;28;20027;-74
2022/01/15 01:53:32;;;;;;;22.45;4.45;;;4.80;99.90;;;;;;4967741;28;20456;-74
2022/01/15 01:55:58;;;;;;;16.30;3.38;;;4.90;99.90;;;;;;4966338;28;20400;-74
2022/01/15 01:58:23;;;;;;;18.30;5.68;;;4.90;99.90;;;;;;4958901;28;20031;-73
2022/01/15 02:00:49;;;;;;;30.30;4.60;;;5.00;99.90;;;;;;4951018;28;20098;-73
2022/01/15 02:03:15;;;;;;;26.80;4.18;;;4.90;99.90;;;;;;4954282;28;20033;-74
2022/01/15 02:05:42;;;;;;;27.27;5.88;;;5.00;99.90;;;;;;4953491;28;20031;-74
2022/01/15 02:08:07;;;;;;;23.95;3.78;;;5.00;99.90;;;;;;4959288;28;20457;-74
2022/01/15 02:10:34;;;;;;;23.05;4.10;;;5.00;99.90;;;;;;4952336;28;20098;-74
2022/01/15 02:13:01;;;;;;;22.55;3.88;;;5.00;99.90;;;;;;4953238;28;20400;-73
2022/01/15 02:15:27;;;;;;;25.38;4.40;;;4.90;99.90;;;;;;4951577;28;20034;-73
2022/01/15 02:17:54;;;;;;;21.02;3.85;;;4.90;99.90;;;;;;4940761;28;20126;-75
2022/01/15 02:25:54;;;;;;;26.27;3.92;;;5.00;99.90;;;;;;4960252;28;20041;-76
2022/01/15 02:28:26;;;;;;;17.30;4.10;;;5.00;99.90;;;;;;4953632;28;20035;-77
2022/01/15 02:30:57;;;;;;;21.38;3.33;;;5.00;99.90;;;;;;4955400;28;20027;-75
2022/01/15 02:33:23;;;;;;;20.88;4.13;;;5.10;99.90;;;;;;4951203;28;20396;-75
2022/01/15 02:35:50;;;;;;;28.40;4.40;;;5.10;99.90;;;;;;4961688;28;20023;-75
2022/01/15 02:38:16;;;;;;;24.00;4.70;;;5.10;99.90;;;;;;4954208;28;20398;-75
2022/01/15 02:40:43;;;;;;;16.25;3.45;;;5.00;99.90;;;;;;4952500;28;20023;-75
2022/01/15 02:43:16;;;;;;;17.98;3.50;;;5.00;99.90;;;;;;4952606;28;20038;-75
2022/01/15 02:45:45;;;;;;;19.65;3.95;;;5.10;99.90;;;;;;4949939;28;20050;-77
2022/01/15 02:48:15;;;;;;;26.90;4.50;;;5.10;99.90;;;;;;4957418;28;20047;-75
2022/01/15 02:50:42;;;;;;;26.38;3.55;;;5.10;99.90;;;;;;4955881;28;20027;-75
2022/01/15 02:53:10;;;;;;;20.42;3.72;;;5.00;99.90;;;;;;4954971;28;20043;-75
2022/01/15 02:55:55;;;;;;;23.38;3.55;;;5.00;99.90;;;;;;4955003;28;20465;-75
2022/01/15 02:58:25;;;;;;;20.50;3.75;;;5.00;99.90;;;;;;4952218;28;20561;-75
2022/01/15 03:00:52;;;;;;;16.88;3.70;;;5.10;99.90;;;;;;4957703;28;20579;-75
2022/01/15 03:03:17;;;;;;;17.15;3.80;;;5.10;99.90;;;;;;4951964;28;20046;-75
2022/01/15 03:05:43;;;;;;;16.83;3.92;;;5.10;99.90;;;;;;4958142;28;20035;-76
2022/01/15 03:08:09;;;;;;;26.60;4.32;;;5.10;99.90;;;;;;4953034;28;20019;-75
2022/01/15 03:10:35;;;;;;;24.45;4.15;;;5.10;99.90;;;;;;4952647;28;20039;-75
2022/01/15 03:13:03;;;;;;;26.52;4.60;;;5.10;99.90;;;;;;4958063;28;20055;-75
2022/01/15 03:15:28;;;;;;;25.00;4.65;;;5.00;99.90;;;;;;4955668;28;20106;-75
2022/01/15 03:17:54;;;;;;;25.75;4.40;;;5.00;99.90;;;;;;4953555;28;20110;-74
2022/01/15 03:20:20;;;;;;;19.48;5.32;;;5.00;99.90;;;;;;4954617;28;20063;-75
2022/01/15 03:22:47;;;;;;;18.50;3.97;;;5.00;99.90;;;;;;4954396;28;20032;-74
2022/01/15 03:25:13;;;;;;;25.70;4.38;;;5.00;99.90;;;;;;4954157;28;20040;-75
2022/01/15 03:27:39;;;;;;;16.15;3.80;;;5.00;99.90;;;;;;4948242;28;20028;-74
2022/01/15 03:30:10;;;;;;;27.52;5.68;;;5.00;99.90;;;;;;4954982;28;20051;-75
2022/01/15 03:32:37;;;;;;;20.88;4.80;;;5.00;99.90;;;;;;4952722;28;20039;-74
2022/01/15 03:35:03;;;;;;;20.48;4.80;;;5.10;99.90;;;;;;4951853;28;20055;-75
2022/01/15 03:37:29;;;;;;;16.70;4.18;;;5.00;99.90;;;;;;4955397;28;20370;-75
2022/01/15 03:39:54;;;;;;;13.30;3.88;;;4.90;99.90;;;;;;4956591;28;20094;-75
2022/01/15 03:42:20;;;;;;;14.82;3.80;;;5.00;99.90;;;;;;4957763;28;20445;-75
2022/01/15 03:44:49;;;;;;;14.95;3.65;;;4.90;99.90;;;;;;4954327;28;20051;-74
2022/01/15 03:47:16;;;;;;;20.02;3.92;;;5.00;99.90;;;;;;4955786;28;20034;-74
2022/01/15 03:49:43;;;;;;;19.15;4.60;;;5.00;99.90;;;;;;4959915;28;20594;-75
2022/01/15 03:52:10;;;;;;;21.88;4.57;;;4.90;99.90;;;;;;4951139;28;20126;-75
2022/01/15 03:54:37;;;;;;;29.48;5.47;;;4.90;99.90;;;;;;4953772;28;20531;-75
2022/01/15 03:57:03;;;;;;;25.52;5.15;;;4.80;99.90;;;;;;4944879;28;20609;-73
2022/01/15 03:59:29;;;;;;;20.85;4.68;;;4.90;99.90;;;;;;4947897;28;20516;-73
2022/01/15 04:01:55;;;;;;;17.23;3.85;;;4.90;99.90;;;;;;4955548;28;20031;-75
2022/01/15 04:04:20;;;;;;;16.00;3.45;;;4.90;99.90;;;;;;4951574;28;20501;-74
2022/01/15 04:06:46;;;;;;;21.58;4.10;;;4.90;99.90;;;;;;4951804;28;20023;-75
2022/01/15 04:09:13;;;;;;;20.75;4.10;;;4.90;99.90;;;;;;4959687;28;20114;-74
2022/01/15 04:11:39;;;;;;;24.42;4.90;;;4.80;99.90;;;;;;4955864;28;20027;-74
2022/01/15 04:14:06;;;;;;;19.55;4.85;;;4.80;99.90;;;;;;4952152;28;20034;-74
2022/01/15 04:16:32;;;;;;;20.23;4.32;;;4.70;99.90;;;;;;4950475;28;20035;-74
2022/01/15 04:18:59;;;;;;;13.57;3.60;;;4.70;99.90;;;;;;4957482;28;21029;-73
2022/01/15 04:21:25;;;;;;;26.85;4.82;;;4.70;99.90;;;;;;4954224;28;20027;-73
2022/01/15 04:23:51;;;;;;;25.00;4.85;;;4.70;99.90;;;;;;4950540;28;20028;-76
2022/01/15 04:26:22;;;;;;;21.75;4.80;;;4.80;99.90;;;;;;4960470;28;20031;-75
2022/01/15 04:28:48;;;;;;;17.40;4.00;;;4.80;99.90;;;;;;4951300;28;20082;-75
2022/01/15 04:31:14;;;;;;;15.65;3.78;;;4.70;99.90;;;;;;4957187;28;20027;-75
2022/01/15 04:33:39;;;;;;;20.15;4.60;;;4.80;99.90;;;;;;4958838;28;20593;-75
2022/01/15 04:36:06;;;;;;;19.70;4.20;;;4.80;99.90;;;;;;4952732;28;20549;-75
2022/01/15 04:38:36;;;;;;;16.65;4.28;;;4.80;99.90;;;;;;4953734;28;20528;-75
2022/01/15 04:41:02;;;;;;;23.77;4.88;;;4.80;99.90;;;;;;4952277;28;20035;-76
2022/01/15 04:43:28;;;;;;;14.45;4.57;;;4.70;99.90;;;;;;4948471;28;21744;-75
2022/01/15 04:45:54;;;;;;;18.13;4.55;;;4.70;99.90;;;;;;4951494;28;20033;-73
2022/01/15 04:48:20;;;;;;;18.27;5.30;;;4.70;99.90;;;;;;4953113;28;20697;-75
2022/01/15 04:50:45;;;;;;;17.70;4.75;;;4.60;99.90;;;;;;4955365;28;20118;-75
2022/01/15 04:53:11;;;;;;;14.95;3.78;;;4.60;99.90;;;;;;4954785;28;20331;-75
2022/01/15 04:55:37;;;;;;;21.60;5.05;;;4.60;99.90;;;;;;4956145;28;20045;-74
2022/01/15 04:58:05;;;;;;;14.80;5.22;;;4.60;99.90;;;;;;4956372;28;20034;-73
2022/01/15 05:00:31;;;;;;;19.10;4.90;;;4.60;99.90;;;;;;4951698;28;20830;-75
2022/01/15 05:02:59;;;;;;;13.57;4.10;;;4.60;99.90;;;;;;4947531;28;20353;-76
2022/01/15 05:05:27;;;;;;;15.68;4.32;;;4.60;99.90;;;;;;4955010;28;20047;-75
2022/01/15 05:07:53;;;;;;;20.75;6.35;;;4.60;99.90;;;;;;4952547;28;20046;-75
2022/01/15 05:10:23;;;;;;;19.60;6.18;;;4.40;99.90;;;;;;4954851;28;20393;-75
2022/01/15 05:12:49;;;;;;;15.50;5.30;;;4.30;99.90;;;;;;4959790;28;20023;-75
2022/01/15 05:15:18;;;;;;;22.75;4.47;;;4.30;99.90;;;;;;4948894;28;20035;-74
2022/01/15 05:17:45;;;;;;;16.27;4.15;;;4.40;99.90;;;;;;4948877;28;20043;-76
2022/01/15 05:20:12;;;;;;;11.38;4.13;;;4.40;99.90;;;;;;4958323;28;20613;-75
2022/01/15 05:22:39;;;;;;;15.38;4.25;;;4.30;99.90;;;;;;4944186;28;20036;-75
2022/01/15 05:25:09;;;;;;;15.75;4.75;;;4.30;99.90;;;;;;4951441;28;20031;-75
2022/01/15 05:27:36;;;;;;;10.65;4.40;;;4.30;99.90;;;;;;4948638;28;20026;-75
2022/01/15 05:30:06;;;;;;;18.73;4.78;;;4.30;99.90;;;;;;4948425;28;20027;-75
2022/01/15 05:32:31;;;;;;;16.85;5.32;;;4.30;99.90;;;;;;4949549;28;20038;-79
2022/01/15 05:34:57;;;;;;;13.27;4.70;;;4.20;99.90;;;;;;4952101;28;20031;-75
2022/01/15 05:37:24;;;;;;;15.10;4.97;;;4.20;99.90;;;;;;4957769;28;20034;-73
2022/01/15 05:39:49;;;;;;;17.20;4.68;;;4.20;99.90;;;;;;4952740;28;20110;-74
2022/01/15 05:42:15;;;;;;;18.10;4.65;;;4.20;99.90;;;;;;4949872;28;20163;-74
2022/01/15 05:44:41;;;;;;;17.92;5.65;;;4.20;99.90;;;;;;4950217;28;20039;-74
2022/01/15 05:47:08;;;;;;;15.40;5.18;;;4.20;99.90;;;;;;4958254;28;20027;-75
2022/01/15 05:49:34;;;;;;;17.05;5.68;;;4.20;99.90;;;;;;4951911;28;20070;-75
2022/01/15 05:51:59;;;;;;;14.73;5.18;;;4.20;99.90;;;;;;4958293;28;20027;-75
2022/01/15 05:54:25;;;;;;;16.33;4.68;;;4.20;99.90;;;;;;4959060;28;20395;-75
2022/01/15 05:56:51;;;;;;;13.85;5.90;;;4.30;99.90;;;;;;4965115;28;20536;-75
2022/01/15 05:59:16;;;;;;;19.83;5.30;;;4.30;99.90;;;;;;4952534;28;20501;-75
2022/01/15 06:01:42;;;;;;;24.77;5.82;;;4.30;99.90;;;;;;4957159;28;20055;-75
2022/01/15 06:04:07;;;;;;;16.17;5.70;;;4.10;99.90;;;;;;4964195;28;20037;-75
2022/01/15 06:06:33;;;;;;;16.77;5.60;;;4.10;99.90;;;;;;4965225;28;20031;-75
2022/01/15 06:08:59;;;;;;;16.08;5.43;;;4.10;99.90;;;;;;4959168;28;20031;-75
2022/01/15 06:11:26;;;;;;;19.73;5.53;;;4.10;99.90;;;;;;4953630;28;20046;-75
2022/01/15 06:13:52;;;;;;;13.93;5.95;;;4.10;99.90;;;;;;4951858;28;21072;-74
2022/01/15 06:16:18;;;;;;;14.70;5.47;;;4.00;99.90;;;;;;4958895;28;20074;-73
2022/01/15 06:18:44;;;;;;;15.95;5.95;;;4.00;99.90;;;;;;4951806;28;20087;-73
2022/01/15 06:21:10;;;;;;;18.02;5.95;;;4.00;99.90;;;;;;4957119;28;20026;-74
2022/01/15 06:23:35;;;;;;;15.85;6.70;;;4.00;99.90;;;;;;4956367;28;20077;-74
2022/01/15 06:26:01;;;;;;;14.18;6.05;;;3.90;99.90;;;;;;4958650;28;20030;-74
2022/01/15 06:28:27;;;;;;;13.90;5.80;;;4.00;99.90;;;;;;4946485;28;20032;-74
2022/01/15 06:30:53;;;;;;;19.83;6.93;;;4.00;99.90;;;;;;4959202;28;20481;-74
2022/01/15 06:33:19;;;;;;;17.92;6.78;;;3.90;99.90;;;;;;4949492;28;20115;-75
2022/01/15 06:35:44;;;;;;;15.65;5.93;;;3.90;99.90;;;;;;4950351;28;20027;-75
2022/01/15 06:38:10;;;;;;;16.80;6.55;;;3.90;99.90;;;;;;4944314;28;20046;-75
2022/01/15 06:40:36;;;;;;;16.88;6.32;;;3.90;99.90;;;;;;4954521;28;20558;-75
2022/01/15 06:43:03;;;;;;;15.60;6.50;;;3.90;99.90;;;;;;4958049;28;20034;-74
2022/01/15 06:45:29;;;;;;;17.33;6.78;;;3.90;99.90;;;;;;4954592;28;20072;-76
2022/01/15 06:47:56;;;;;;;19.10;7.40;;;3.80;99.90;;;;;;4957134;28;20027;-75
2022/01/15 06:50:23;;;;;;;18.63;6.53;;;3.80;99.90;;;;;;4954255;28;20027;-73
2022/01/15 06:52:50;;;;;;;16.25;6.60;;;3.80;99.90;;;;;;4959062;28;20117;-74
2022/01/15 06:55:16;;;;;;;16.52;8.38;;;3.80;99.90;;;;;;4956912;28;20034;-73
2022/01/15 06:57:42;;;;;;;25.65;7.63;;;3.70;99.90;;;;;;4952196;28;20090;-76
2022/01/15 07:00:09;;;;;;;19.65;6.85;;;3.70;99.90;;;;;;4955589;28;20364;-75
2022/01/15 07:02:35;;;;;;;17.73;7.80;;;3.60;99.90;;;;;;4950456;28;20109;-75
2022/01/15 07:05:04;;;;;;;16.92;7.47;;;3.70;99.90;;;;;;4955427;28;20126;-75
2022/01/15 07:07:30;;;;;;;17.17;7.20;;;3.70;99.90;;;;;;4953273;28;20051;-74
2022/01/15 07:09:59;;;;;;;17.95;7.93;;;3.80;99.90;;;;;;4954836;28;20033;-74
2022/01/15 07:12:24;;;;;;;13.18;6.95;;;3.80;99.90;;;;;;4956488;28;20385;-74
2022/01/15 07:14:50;;;;;;;17.85;7.40;;;3.80;99.90;;;;;;4954971;28;20085;-74
2022/01/15 07:17:16;;;;;;;16.20;7.30;;;3.80;99.90;;;;;;4953921;28;20038;-74
2022/01/15 07:19:42;;;;;;;19.92;7.95;;;3.80;99.90;;;;;;4955112;28;20430;-74
2022/01/15 07:22:08;;;;;;;19.67;6.97;;;3.80;99.90;;;;;;4953653;28;20032;-74
2022/01/15 07:24:34;;;;;;;17.83;8.18;;;3.80;99.90;;;;;;4955853;28;20579;-74
2022/01/15 07:27:00;;;;;;;16.48;7.85;;;3.80;99.90;;;;;;4936317;28;24002;-74
2022/01/15 07:29:26;;;;;;;21.67;9.10;;;3.80;99.90;;;;;;4956968;28;20031;-74
2022/01/15 07:31:53;;;;;;;20.80;9.38;;;3.90;99.90;;;;;;4955509;28;20483;-74
2022/01/15 07:34:19;;;;;;;16.83;7.40;;;3.90;99.90;;;;;;4955775;28;20039;-74
2022/01/15 07:36:52;;;;;;;20.90;8.93;;;3.90;99.90;;;;;;4956730;28;20428;-73
2022/01/15 07:39:18;;;;;;;14.60;7.30;;;3.90;99.90;;;;;;4952726;28;20039;-74
2022/01/15 07:41:44;;;;;;;16.20;6.47;;;3.80;99.90;;;;;;4952181;28;20027;-73
2022/01/15 07:44:10;;;;;;;16.33;7.10;;;3.70;99.90;;;;;;4955531;28;20504;-74
2022/01/15 07:46:36;;;;;;;12.98;6.00;;;3.70;99.90;;;;;;4952971;28;20027;-73
2022/01/15 07:49:02;;;;;;;17.83;7.05;;;3.60;99.90;;;;;;4950171;28;20031;-75
2022/01/15 07:51:28;;;;;;;17.13;7.15;;;3.50;99.90;;;;;;4960329;28;20031;-74
2022/01/15 07:53:53;;;;;;;14.88;5.65;;;3.60;99.90;;;;;;4958848;28;20032;-74
2022/01/15 07:56:19;;;;;;;15.35;5.70;;;3.60;99.90;;;;;;4954368;28;20036;-72
2022/01/15 07:58:45;;;;;;;11.23;5.28;;;3.60;99.90;;;;;;4967494;28;20102;-72
2022/01/15 08:01:11;;;;;;;18.42;5.20;;;3.60;99.90;;;;;;4956211;28;20067;-74
2022/01/15 08:03:36;;;;;;;14.95;6.57;;;3.70;99.90;;;;;;4957346;28;20027;-73
2022/01/15 08:06:02;;;;;;;11.95;5.55;;;3.70;99.90;;;;;;4956048;28;20565;-74
2022/01/15 08:08:28;;;;;;;13.88;6.05;;;3.70;99.90;;;;;;4948390;28;20038;-73
2022/01/15 08:10:54;;;;;;;12.75;4.90;;;3.80;99.90;;;;;;4935500;28;20114;-72
2022/01/15 08:13:20;;;;;;;13.38;5.75;;;3.90;99.90;;;;;;4954162;28;20061;-72
2022/01/15 08:15:45;;;;;;;13.75;5.07;;;3.90;99.90;;;;;;4953537;28;20031;-73
2022/01/15 08:18:11;;;;;;;15.50;5.38;;;3.90;99.90;;;;;;4954993;28;20034;-73
2022/01/15 08:20:37;;;;;;;11.32;5.00;;;4.10;99.90;;;;;;4957816;28;20035;-73
2022/01/15 08:23:02;;;;;;;13.27;5.35;;;4.10;99.90;;;;;;4956379;28;20034;-73
2022/01/15 08:25:28;;;;;;;11.80;5.70;;;4.10;99.90;;;;;;4961642;28;20028;-73
2022/01/15 08:27:54;;;;;;;10.57;5.18;;;4.00;99.90;;;;;;4958083;28;20290;-72
2022/01/15 08:30:22;;;;;;;10.30;5.00;;;4.00;99.90;;;;;;4955802;28;20023;-74
2022/01/15 08:32:48;;;;;;;14.20;5.38;;;4.00;99.90;;;;;;4954391;28;20054;-72
2022/01/15 08:35:14;;;;;;;11.30;5.70;;;4.00;99.90;;;;;;4953934;28;20489;-74
2022/01/15 08:37:40;;;;;;;12.13;4.75;;;4.00;99.90;;;;;;4957951;28;20118;-73
2022/01/15 08:40:08;;;;;;;11.25;5.45;;;4.00;99.90;;;;;;4954861;28;20035;-74
2022/01/15 08:42:35;;;;;;;13.15;4.93;;;4.00;99.90;;;;;;4955229;28;20117;-76
2022/01/15 08:45:02;;;;;;;12.20;5.72;;;4.00;99.90;;;;;;4953594;28;20161;-74
2022/01/15 08:47:27;;;;;;;10.25;4.40;;;4.00;99.90;;;;;;4949531;28;20027;-74
2022/01/15 08:49:53;;;;;;;13.45;5.63;;;4.00;99.90;;;;;;4955463;28;20050;-76
2022/01/15 08:52:19;;;;;;;11.10;4.82;;;4.00;99.90;;;;;;4954483;28;20050;-74
2022/01/15 08:54:45;;;;;;;13.73;5.13;;;4.00;99.90;;;;;;4948677;28;20073;-71
2022/01/15 08:57:11;;;;;;;14.75;6.07;;;4.00;99.90;;;;;;4953406;28;20029;-73
2022/01/15 08:59:36;;;;;;;20.50;8.98;;;4.00;99.90;;;;;;4952658;28;20031;-73
2022/01/15 09:02:03;;;;;;;9.38;3.97;;;4.10;99.90;;;;;;4966602;28;20031;-74
2022/01/15 09:04:28;;;;;;;12.80;4.72;;;4.10;99.90;;;;;;4954017;28;20477;-74
2022/01/15 09:06:54;;;;;;;11.23;4.47;;;4.10;99.90;;;;;;4956051;28;20035;-74
2022/01/15 09:09:20;;;;;;;12.63;4.57;;;4.10;99.90;;;;;;4953634;28;20066;-75
2022/01/15 09:11:46;;;;;;;7.72;3.97;;;4.10;99.90;;;;;;4954508;28;20494;-74
2022/01/15 09:14:12;;;;;;;9.52;4.30;;;4.20;99.90;;;;;;4953771;28;20042;-73
2022/01/15 09:16:38;;;;;;;10.27;3.75;;;4.20;99.90;;;;;;4952617;28;20075;-73
2022/01/15 09:19:04;;;;;;;9.25;3.80;;;4.20;99.90;;;;;;4948956;28;20075;-74
2022/01/15 09:21:30;;;;;;;11.68;4.57;;;4.30;99.90;;;;;;4966345;28;20058;-74
2022/01/15 09:23:56;;;;;;;9.32;3.88;;;4.30;99.90;;;;;;4952230;28;20086;-73
2022/01/15 09:26:35;;;;;;;8.27;4.10;;;4.30;99.90;;;;;;4948617;28;20031;-73
2022/01/15 09:31:45;;;;;;;13.80;4.28;;;4.40;99.90;;;;;;4955445;28;20027;-74
2022/01/15 09:34:10;;;;;;;9.90;4.18;;;4.40;99.90;;;;;;4954326;28;20042;-76
2022/01/15 09:36:36;;;;;;;14.57;4.22;;;4.50;99.90;;;;;;4956146;28;20033;-74
2022/01/15 09:39:02;;;;;;;14.13;4.32;;;4.50;99.90;;;;;;4958166;28;20583;-74
2022/01/15 09:41:29;;;;;;;9.73;4.80;;;4.50;99.90;;;;;;4954340;28;20030;-74
2022/01/15 09:43:56;;;;;;;8.70;3.92;;;4.50;99.90;;;;;;4956047;28;20159;-74
2022/01/15 09:46:22;;;;;;;10.48;4.22;;;4.60;99.90;;;;;;4954061;28;20027;-75
2022/01/15 09:48:48;;;;;;;11.57;4.53;;;4.60;99.90;;;;;;4951089;28;20125;-74
2022/01/15 09:51:14;;;;;;;11.20;4.18;;;4.60;99.90;;;;;;4955982;28;20023;-74
2022/01/15 09:53:42;;;;;;;15.85;5.47;;;4.70;99.90;;;;;;4955709;28;20397;-74
2022/01/15 09:56:09;;;;;;;10.80;3.80;;;4.80;99.90;;;;;;4956621;28;20027;-75
2022/01/15 09:58:35;;;;;;;12.65;4.32;;;4.80;99.90;;;;;;4956366;28;20053;-74
2022/01/15 10:01:05;;;;;;;12.85;3.67;;;4.80;99.90;;;;;;4958938;28;20042;-74
2022/01/15 10:03:31;;;;;;;10.65;4.70;;;4.70;99.90;;;;;;4955731;28;20525;-77
2022/01/15 10:05:56;;;;;;;8.40;3.60;;;4.80;99.90;;;;;;4953287;28;20135;-75
2022/01/15 10:08:22;;;;;;;9.43;4.10;;;4.90;99.90;;;;;;4957040;28;20085;-75
2022/01/15 10:10:50;;;;;;;10.43;3.70;;;4.90;99.90;;;;;;4960814;28;20035;-74
2022/01/15 10:13:21;;;;;;;10.80;4.00;;;4.90;99.90;;;;;;4956545;28;20042;-74
2022/01/15 10:16:08;;;;;;;13.57;4.80;;;5.00;99.90;;;;;;4959965;28;20374;-74
2022/01/15 10:18:42;;;;;;;14.02;4.07;;;5.00;99.90;;;;;;4945119;28;20349;-74
2022/01/15 10:21:23;;;;;;;15.35;4.32;;;5.00;99.90;;;;;;4940967;28;20143;-74
2022/01/15 10:23:58;;;;;;;12.60;3.55;;;5.00;99.90;;;;;;4959550;28;20037;-73
2022/01/15 10:26:26;;;;;;;8.40;3.90;;;5.00;99.90;;;;;;4943943;28;20441;-74
2022/01/15 10:28:53;;;;;;;8.65;3.80;;;5.10;99.90;;;;;;4961178;28;20226;-73
2022/01/15 10:31:21;;;;;;;12.45;3.92;;;5.20;99.90;;;;;;4956576;28;20024;-74
2022/01/15 10:33:51;;;;;;;18.65;4.65;;;5.20;99.90;;;;;;4961059;28;20040;-73
2022/01/15 10:36:45;;;;;;;10.93;3.90;;;5.30;99.90;;;;;;4967017;28;20039;-74
2022/01/15 10:39:20;;;;;;;15.52;4.20;;;5.30;99.90;;;;;;4961214;28;20126;-74
2022/01/15 10:41:47;;;;;;;17.65;5.30;;;5.30;99.90;;;;;;4959991;28;20028;-73
2022/01/15 10:44:32;;;;;;;15.65;4.60;;;5.30;99.90;;;;;;4959796;28;20105;-73
2022/01/15 10:47:10;;;;;;;15.00;4.35;;;5.30;99.90;;;;;;4962185;28;20045;-76
2022/01/15 10:49:37;;;;;;;12.40;4.05;;;5.40;99.90;;;;;;4940679;28;20027;-75
2022/01/15 10:52:21;;;;;;;15.25;4.10;;;5.40;99.90;;;;;;4969270;28;20533;-73
2022/01/15 10:55:00;;;;;;;14.13;3.38;;;5.50;99.90;;;;;;4952820;28;20027;-73
2022/01/15 10:57:39;;;;;;;13.65;4.35;;;5.60;99.90;;;;;;4952801;28;20031;-75
2022/01/15 11:00:11;;;;;;;17.83;4.30;;;5.90;99.90;;;;;;4955201;28;20039;-74
2022/01/15 11:02:38;;;;;;;15.77;3.70;;;6.00;99.90;;;;;;4955090;28;20569;-75
2022/01/15 11:05:31;;;;;;;12.23;4.18;;;6.00;99.90;;;;;;4956460;28;20063;-75
2022/01/15 11:08:14;;;;;;;17.75;4.07;;;6.00;99.90;;;;;;4957117;28;20026;-74
2022/01/15 11:10:50;;;;;;;15.13;4.63;;;6.10;99.90;;;;;;4960226;28;20485;-74
2022/01/15 11:13:19;;;;;;;13.65;3.70;;;6.00;99.90;;;;;;4958599;28;20118;-74
2022/01/15 11:15:47;;;;;;;10.98;3.25;;;6.10;99.90;;;;;;4956988;28;20039;-73
2022/01/15 11:18:18;;;;;;;17.90;4.97;;;6.10;99.90;;;;;;4953967;28;20398;-74
2022/01/15 11:20:47;;;;;;;18.50;4.95;;;6.20;99.90;;;;;;4954302;28;20101;-72
2022/01/15 11:23:14;;;;;;;15.30;4.70;;;6.30;99.90;;;;;;4949426;28;20030;-76
2022/01/15 11:25:42;;;;;;;16.58;4.80;;;6.30;99.90;;;;;;4955390;28;20460;-75
2022/01/15 11:28:07;;;;;;;19.42;5.30;;;6.20;99.90;;;;;;4955397;28;20031;-76
2022/01/15 11:30:34;;;;;;;15.77;5.00;;;6.30;99.90;;;;;;4957776;28;20556;-75
2022/01/15 11:33:01;;;;;;;9.70;4.15;;;6.30;99.90;;;;;;4953089;28;20497;-75
2022/01/15 11:35:47;;;;;;;15.93;4.18;;;6.30;99.90;;;;;;4959504;28;20125;-73
2022/01/15 11:38:50;;;;;;;10.93;4.00;;;6.40;99.90;;;;;;4958393;28;20032;-75
2022/01/15 11:41:28;;;;;;;20.17;4.90;;;6.40;99.90;;;;;;4920314;29;20032;-75
2022/01/15 11:44:04;;;;;;;16.98;4.55;;;6.50;99.90;;;;;;4952926;28;20047;-75
2022/01/15 11:46:33;;;;;;;12.25;3.78;;;6.50;99.90;;;;;;4952178;28;20477;-75
2022/01/15 11:49:27;;;;;;;10.55;3.63;;;6.40;99.90;;;;;;4953982;28;20485;-74
2022/01/15 11:52:05;;;;;;;11.65;3.63;;;6.40;99.90;;;;;;4951224;28;20062;-74
2022/01/15 11:54:31;;;;;;;11.50;3.47;;;6.30;99.90;;;;;;4945249;28;20489;-74
2022/01/15 11:57:00;;;;;;;13.50;3.95;;;6.30;99.90;;;;;;4947245;28;20409;-74
2022/01/15 11:59:25;;;;;;;15.57;4.22;;;6.40;99.90;;;;;;4948654;28;20039;-75
2022/01/15 12:01:53;;;;;;;11.68;3.90;;;6.40;99.90;;;;;;4945138;28;20032;-72
2022/01/15 12:04:28;;;;;;;24.88;6.28;;;6.50;99.90;;;;;;4950134;28;20095;-72
2022/01/15 12:07:06;;;;;;;12.43;4.70;;;6.60;99.90;;;;;;4942682;28;20031;-75
2022/01/15 12:09:38;;;;;;;17.70;4.63;;;6.60;99.90;;;;;;4935743;28;20580;-75
2022/01/15 12:12:34;;;;;;;14.00;5.13;;;6.60;99.90;;;;;;4946714;28;20274;-74
2022/01/15 12:15:03;;;;;;;14.65;4.70;;;6.50;99.90;;;;;;4937038;28;20043;-75
2022/01/15 12:17:31;;;;;;;23.67;5.75;;;6.40;99.90;;;;;;4945828;28;20035;-75
2022/01/15 12:20:04;;;;;;;23.98;5.40;;;6.50;99.90;;;;;;4943953;28;20115;-74
2022/01/15 12:22:43;;;;;;;13.43;3.70;;;6.40;99.90;;;;;;4944936;28;20061;-75
2022/01/15 12:25:18;;;;;;;18.75;3.97;;;6.30;99.90;;;;;;4944578;28;20027;-75
2022/01/15 12:27:56;;;;;;;16.83;4.68;;;6.30;99.90;;;;;;4959139;28;20059;-75
2022/01/15 12:30:24;;;;;;;12.77;3.25;;;6.20;99.90;;;;;;4946795;28;20019;-74
2022/01/15 12:32:53;;;;;;;16.60;3.45;;;6.20;99.90;;;;;;4947246;28;20448;-75
2022/01/15 12:35:24;;;;;;;10.75;3.80;;;6.20;99.90;;;;;;4948062;28;20030;-75
2022/01/15 12:38:03;;;;;;;10.32;3.05;;;6.20;99.90;;;;;;4951114;28;20031;-74
2022/01/15 12:40:40;;;;;;;18.27;5.07;;;6.30;99.90;;;;;;4952029;28;20035;-77
2022/01/15 12:43:24;;;;;;;12.45;4.28;;;6.30;99.90;;;;;;4960470;28;20038;-76
2022/01/15 12:45:52;;;;;;;32.20;5.50;;;6.30;99.90;;;;;;4955472;28;20106;-76
2022/01/15 12:48:30;;;;;;;10.38;3.17;;;6.30;99.90;;;;;;4948559;28;20063;-75
2022/01/15 12:50:58;;;;;;;19.10;4.15;;;6.40;99.90;;;;;;4947325;28;20131;-76
2022/01/15 12:53:26;;;;;;;23.42;3.42;;;6.30;99.90;;;;;;4950878;28;20102;-75
2022/01/15 12:55:52;;;;;;;17.98;3.33;;;6.30;99.90;;;;;;4947168;28;20035;-75
2022/01/15 12:58:20;;;;;;;24.20;3.53;;;6.30;99.90;;;;;;4950469;28;20038;-75
2022/01/15 13:00:50;;;;;;;18.63;3.83;;;6.40;99.90;;;;;;4944374;28;20039;-76
2022/01/15 13:03:25;;;;;;;21.13;3.78;;;6.40;99.90;;;;;;4945218;28;20637;-74
2022/01/15 13:05:58;;;;;;;21.27;4.85;;;6.40;99.90;;;;;;4955881;28;20445;-75
2022/01/15 13:08:29;;;;;;;13.18;3.10;;;6.40;99.90;;;;;;4942780;28;20066;-76
2022/01/15 13:11:04;;;;;;;11.60;4.15;;;6.50;99.90;;;;;;4940847;28;20094;-75
2022/01/15 13:13:35;;;;;;;23.92;3.80;;;6.50;99.90;;;;;;4944233;28;20126;-76